Terminal Aerodrome Forecast
Issued by NWS

Home | Current Version | Previous Version | Text Only | Print | Product List | Glossary On
Versions: 1 2 3 4 5 6 7 8 9 10 11 12 13 14 15 16 17 18 19 20 21 22 23 24 25
000
FTUS43 KGRR 221400 AAA
TAFAZO
TAF AMD
KAZO 221413Z 2214/2312 19005KT 2SM BR OVC004
     FM221530 09004KT 5SM BR BKN015
     FM221800 08004KT 6SM HZ BKN025
     FM222000 08004KT P6SM BKN035
     FM230500 07004KT 3SM BR BKN015=

USA.gov is the U.S. government's official web portal to all federal, state and local government web resources and services.